Time;durP1;ratioP1;P1;durP2;ratioP2;P2;SDS_P1;SDS_P2;PMS_P1;PMS_P2;Temp;Humidity;BMP_temperature;BMP_pressure;BME280_temperature;BME280_humidity;BME280_pressure;Samples;Min_cycle;Max_cycle;Signal;HPM_P1;HPM_P2
2024/01/11 00:00:54;;;;;;;38.00;21.07;;;-3.50;69.10;;;;;;5066947;28;20266;-60
2024/01/11 00:03:20;;;;;;;42.63;22.23;;;-3.60;69.30;;;;;;5071406;28;20659;-60
2024/01/11 00:05:47;;;;;;;43.90;23.67;;;-3.50;69.60;;;;;;5069227;28;20217;-60
2024/01/11 00:08:13;;;;;;;41.13;23.13;;;-3.40;69.20;;;;;;5071894;28;20205;-60
2024/01/11 00:10:40;;;;;;;41.57;23.03;;;-3.40;69.10;;;;;;5068372;28;20251;-60
2024/01/11 00:13:06;;;;;;;40.27;21.13;;;-3.40;69.00;;;;;;5071313;28;20209;-60
2024/01/11 00:15:33;;;;;;;45.93;22.60;;;-3.40;68.10;;;;;;5071228;28;20757;-60
2024/01/11 00:17:59;;;;;;;44.53;21.53;;;-3.40;68.30;;;;;;5070712;28;20250;-59
2024/01/11 00:20:26;;;;;;;42.63;21.90;;;-3.60;68.60;;;;;;5073123;28;20208;-60
2024/01/11 00:22:52;;;;;;;38.03;20.73;;;-3.70;69.00;;;;;;5075469;28;20205;-60
2024/01/11 00:25:19;;;;;;;41.77;22.13;;;-3.50;68.90;;;;;;5074398;28;20279;-59
2024/01/11 00:27:45;;;;;;;42.53;22.67;;;-3.60;68.60;;;;;;5075027;28;20262;-60
2024/01/11 00:30:12;;;;;;;42.43;21.83;;;-3.60;69.40;;;;;;5076373;28;20250;-60
2024/01/11 00:32:38;;;;;;;40.67;22.73;;;-3.50;68.60;;;;;;5077790;28;20205;-60
2024/01/11 00:35:05;;;;;;;39.13;22.37;;;-3.40;68.10;;;;;;5069273;28;20258;-60
2024/01/11 00:37:32;;;;;;;44.33;22.00;;;-3.50;67.00;;;;;;5069876;28;20261;-60
2024/01/11 00:39:58;;;;;;;45.20;21.07;;;-3.50;68.20;;;;;;5074995;28;20240;-59
2024/01/11 00:42:25;;;;;;;37.37;20.57;;;-3.70;67.70;;;;;;5067771;28;20254;-60
2024/01/11 00:44:51;;;;;;;44.27;22.20;;;-3.80;69.20;;;;;;5074615;28;20226;-60
2024/01/11 00:47:18;;;;;;;42.40;22.30;;;-3.70;69.40;;;;;;5072964;28;20642;-61
2024/01/11 00:49:44;;;;;;;39.13;21.37;;;-3.60;68.50;;;;;;5074916;28;20765;-60
2024/01/11 00:54:43;;;;;;;43.20;22.37;;;-3.80;68.70;;;;;;5046932;28;20221;-59
2024/01/11 00:57:10;;;;;;;52.40;22.00;;;-3.70;69.20;;;;;;5028318;28;20258;-59
2024/01/11 00:59:36;;;;;;;45.63;21.17;;;-3.70;68.00;;;;;;5024852;28;20265;-59
2024/01/11 01:02:03;;;;;;;40.50;20.63;;;-3.70;68.70;;;;;;5025763;28;20667;-59
2024/01/11 01:04:29;;;;;;;39.70;20.17;;;-3.70;68.90;;;;;;5029942;28;20285;-59
2024/01/11 01:06:56;;;;;;;37.43;19.43;;;-3.70;68.80;;;;;;5022176;28;20227;-58
2024/01/11 01:09:22;;;;;;;35.10;19.43;;;-3.80;68.80;;;;;;5023016;28;20207;-59
2024/01/11 01:11:49;;;;;;;38.17;19.73;;;-3.70;69.00;;;;;;5028828;28;20613;-59
2024/01/11 01:14:15;;;;;;;39.83;20.27;;;-3.70;68.40;;;;;;5026550;28;20638;-58
2024/01/11 01:16:42;;;;;;;48.57;26.23;;;-3.90;69.70;;;;;;5024008;28;20639;-58
2024/01/11 01:19:08;;;;;;;49.03;22.67;;;-3.80;69.10;;;;;;5034298;28;20260;-56
2024/01/11 01:21:35;;;;;;;45.47;22.80;;;-3.80;68.40;;;;;;5026325;28;20213;-58
2024/01/11 01:24:02;;;;;;;46.33;23.37;;;-3.80;68.30;;;;;;5032484;28;20194;-60
2024/01/11 01:26:29;;;;;;;47.23;24.90;;;-3.80;68.10;;;;;;5023471;28;20725;-60
2024/01/11 01:28:55;;;;;;;55.90;24.07;;;-4.10;69.00;;;;;;5030293;28;20233;-59
2024/01/11 01:31:22;;;;;;;45.00;23.27;;;-4.10;69.70;;;;;;5025712;28;20256;-60
2024/01/11 01:33:49;;;;;;;45.30;22.03;;;-3.90;69.70;;;;;;5022095;28;20698;-60
2024/01/11 01:36:15;;;;;;;46.83;23.73;;;-3.80;68.40;;;;;;5018172;28;20373;-60
2024/01/11 01:38:42;;;;;;;53.70;23.83;;;-4.00;67.20;;;;;;5024863;28;20203;-60
2024/01/11 01:41:08;;;;;;;43.63;21.93;;;-4.00;68.20;;;;;;5031407;28;20210;-60
2024/01/11 01:43:35;;;;;;;43.57;24.07;;;-3.90;67.60;;;;;;5025977;28;20289;-59
2024/01/11 01:46:02;;;;;;;44.97;22.43;;;-4.10;68.60;;;;;;5028910;28;20226;-58
2024/01/11 01:48:28;;;;;;;42.60;22.80;;;-4.10;69.30;;;;;;5022918;28;20207;-59
2024/01/11 01:50:55;;;;;;;41.63;22.03;;;-4.10;68.20;;;;;;5025848;28;20206;-58
2024/01/11 01:53:21;;;;;;;50.30;24.27;;;-4.00;67.40;;;;;;5025839;28;20207;-58
2024/01/11 01:55:48;;;;;;;46.37;21.83;;;-4.10;67.50;;;;;;5023584;28;20234;-58
2024/01/11 01:58:15;;;;;;;45.33;22.63;;;-4.20;68.80;;;;;;5028217;28;20245;-60
2024/01/11 02:00:42;;;;;;;40.43;23.27;;;-4.20;68.00;;;;;;5023499;28;20209;-61
2024/01/11 02:03:08;;;;;;;43.47;23.00;;;-4.10;67.60;;;;;;5022872;28;20281;-60
2024/01/11 02:05:35;;;;;;;50.57;23.07;;;-4.40;68.60;;;;;;5023708;28;20227;-59
2024/01/11 02:08:01;;;;;;;65.80;26.23;;;-4.20;68.50;;;;;;5025843;28;20229;-57
2024/01/11 02:10:28;;;;;;;41.87;22.37;;;-4.50;68.70;;;;;;5027140;28;20207;-60
2024/01/11 02:12:54;;;;;;;44.20;24.90;;;-4.40;69.20;;;;;;5023967;28;20260;-57
2024/01/11 02:15:21;;;;;;;47.57;23.57;;;-4.30;68.70;;;;;;5031164;28;20284;-60
2024/01/11 02:17:47;;;;;;;40.90;21.90;;;-4.30;67.90;;;;;;5029891;28;20234;-60
2024/01/11 02:20:14;;;;;;;38.50;22.27;;;-4.70;69.80;;;;;;5021611;28;20207;-60
2024/01/11 02:22:40;;;;;;;37.70;21.13;;;-4.50;70.20;;;;;;5023807;28;20253;-57
2024/01/11 02:25:07;;;;;;;42.67;21.97;;;-4.40;69.90;;;;;;5027620;28;20272;-60
2024/01/11 02:27:33;;;;;;;40.60;21.80;;;-4.30;69.50;;;;;;5031687;28;20230;-60
2024/01/11 02:30:00;;;;;;;33.23;20.97;;;-4.30;68.20;;;;;;5024373;28;20559;-59
2024/01/11 02:32:27;;;;;;;36.90;20.03;;;-4.20;68.00;;;;;;5032642;28;20217;-60
2024/01/11 02:34:53;;;;;;;30.37;18.27;;;-4.60;69.10;;;;;;5015728;28;20227;-60
2024/01/11 02:37:20;;;;;;;32.67;19.70;;;-4.70;69.50;;;;;;5029025;28;20560;-59
2024/01/11 02:39:46;;;;;;;34.50;19.77;;;-4.50;69.90;;;;;;5027388;28;20241;-60
2024/01/11 02:42:13;;;;;;;36.43;19.70;;;-4.40;68.50;;;;;;5053590;28;20209;-60
2024/01/11 02:44:40;;;;;;;32.67;18.90;;;-4.30;67.90;;;;;;5032487;28;20253;-60
2024/01/11 02:47:06;;;;;;;31.87;19.03;;;-4.20;67.20;;;;;;5028903;28;20207;-60
2024/01/11 02:49:33;;;;;;;34.27;18.90;;;-4.10;66.70;;;;;;5023630;28;20206;-60
2024/01/11 02:51:59;;;;;;;32.70;18.80;;;-4.60;67.00;;;;;;5020814;28;20673;-60
2024/01/11 02:54:26;;;;;;;34.83;18.43;;;-4.30;68.20;;;;;;5023337;28;20226;-60
2024/01/11 02:56:52;;;;;;;30.60;17.47;;;-4.20;67.20;;;;;;5020391;28;20651;-60
2024/01/11 02:59:19;;;;;;;33.40;18.30;;;-4.20;67.10;;;;;;5027489;28;20210;-60
2024/01/11 03:01:45;;;;;;;31.00;19.23;;;-4.40;67.00;;;;;;5030684;28;20211;-59
2024/01/11 03:04:12;;;;;;;28.07;18.23;;;-4.40;68.20;;;;;;5024503;28;20266;-59
2024/01/11 03:06:38;;;;;;;29.73;18.67;;;-4.30;68.70;;;;;;5030485;28;20222;-60
2024/01/11 03:09:05;;;;;;;25.90;17.30;;;-4.30;68.40;;;;;;5024666;28;20281;-59
2024/01/11 03:11:31;;;;;;;27.27;17.43;;;-4.40;67.40;;;;;;5024573;28;20221;-60
2024/01/11 03:13:58;;;;;;;29.70;17.97;;;-4.30;68.40;;;;;;5027681;28;20241;-59
2024/01/11 03:16:24;;;;;;;28.47;16.63;;;-4.30;68.20;;;;;;5024987;28;20226;-60
2024/01/11 03:18:51;;;;;;;27.47;16.30;;;-4.20;67.40;;;;;;5031230;28;20206;-60
2024/01/11 03:21:18;;;;;;;26.07;17.43;;;-4.20;67.00;;;;;;5023885;28;20210;-58
2024/01/11 03:23:44;;;;;;;30.57;17.33;;;-4.20;66.60;;;;;;5021498;28;20247;-60
2024/01/11 03:26:11;;;;;;;27.63;16.63;;;-4.30;67.10;;;;;;5026676;28;20264;-59
2024/01/11 03:28:37;;;;;;;26.73;17.73;;;-4.30;67.30;;;;;;5022152;28;20294;-60
2024/01/11 03:31:04;;;;;;;31.03;18.10;;;-4.40;67.20;;;;;;5020758;28;20218;-60
2024/01/11 03:33:30;;;;;;;31.60;18.33;;;-4.50;67.30;;;;;;5029620;28;20264;-61
2024/01/11 03:35:57;;;;;;;32.47;18.60;;;-4.40;67.90;;;;;;5031103;28;20239;-60
2024/01/11 03:38:23;;;;;;;28.60;17.17;;;-4.50;68.00;;;;;;5028770;28;20210;-58
2024/01/11 03:40:50;;;;;;;30.07;18.37;;;-4.50;68.50;;;;;;5024137;28;20210;-60
2024/01/11 03:43:16;;;;;;;31.77;18.00;;;-4.30;67.70;;;;;;5023931;28;20214;-60
2024/01/11 03:45:43;;;;;;;31.67;19.23;;;-4.60;67.90;;;;;;5030942;28;20242;-60
2024/01/11 03:48:09;;;;;;;32.33;18.67;;;-4.60;68.90;;;;;;5023319;28;20265;-59
2024/01/11 03:50:36;;;;;;;33.97;18.70;;;-4.40;69.10;;;;;;5026981;28;20718;-59
2024/01/11 03:53:04;;;;;;;36.67;19.13;;;-4.40;68.30;;;;;;5031860;28;20210;-60
2024/01/11 03:55:30;;;;;;;35.33;18.43;;;-4.40;68.50;;;;;;5026619;28;20231;-59
2024/01/11 03:57:57;;;;;;;31.67;18.03;;;-4.40;68.80;;;;;;5023306;28;20430;-58
2024/01/11 04:00:23;;;;;;;33.03;18.80;;;-4.30;68.40;;;;;;5019969;28;20670;-60
2024/01/11 04:02:50;;;;;;;34.90;19.13;;;-4.20;67.90;;;;;;5020056;28;20245;-60
2024/01/11 04:05:16;;;;;;;29.13;18.43;;;-4.20;67.60;;;;;;5026980;28;20284;-60
2024/01/11 04:07:43;;;;;;;33.27;18.23;;;-4.20;68.20;;;;;;5023064;28;20638;-60
2024/01/11 04:10:10;;;;;;;31.10;18.93;;;-4.20;68.50;;;;;;5031533;28;20294;-60
2024/01/11 04:12:37;;;;;;;32.87;18.93;;;-4.10;67.70;;;;;;5019540;28;20203;-60
2024/01/11 04:15:03;;;;;;;34.20;19.33;;;-4.20;67.90;;;;;;5022771;28;20322;-59
2024/01/11 04:17:30;;;;;;;31.20;20.13;;;-4.10;68.60;;;;;;5027733;28;20214;-60
2024/01/11 04:19:56;;;;;;;33.07;20.97;;;-4.10;68.00;;;;;;5019999;28;20207;-60
2024/01/11 04:22:23;;;;;;;30.90;18.30;;;-4.00;67.90;;;;;;5020268;28;20211;-59
2024/01/11 04:24:49;;;;;;;29.73;17.97;;;-4.10;67.80;;;;;;5022951;28;20211;-59
2024/01/11 04:27:16;;;;;;;35.23;19.63;;;-4.10;68.20;;;;;;5029526;28;20202;-58
2024/01/11 04:29:42;;;;;;;29.17;17.93;;;-4.20;68.70;;;;;;5041653;28;20202;-60
2024/01/11 04:32:09;;;;;;;31.17;19.33;;;-4.20;67.70;;;;;;5025126;28;20211;-60
2024/01/11 04:34:35;;;;;;;34.83;19.37;;;-4.30;67.60;;;;;;5024133;28;20632;-60
2024/01/11 04:37:02;;;;;;;31.43;19.10;;;-4.30;68.40;;;;;;5026117;28;20227;-59
2024/01/11 04:39:28;;;;;;;31.00;19.97;;;-4.60;67.70;;;;;;5020379;28;20207;-60
2024/01/11 04:41:55;;;;;;;32.53;20.33;;;-4.40;67.10;;;;;;5030688;28;20257;-60
2024/01/11 04:44:21;;;;;;;30.83;18.07;;;-4.40;65.40;;;;;;5029962;28;20206;-59
2024/01/11 04:46:48;;;;;;;28.23;18.60;;;-4.40;66.00;;;;;;5024944;28;20223;-60
2024/01/11 04:49:14;;;;;;;30.53;18.67;;;-4.40;65.40;;;;;;5024595;28;20211;-60
2024/01/11 04:51:41;;;;;;;29.70;19.53;;;-4.50;66.30;;;;;;5022122;28;20207;-59
2024/01/11 04:54:07;;;;;;;31.23;19.53;;;-4.40;66.80;;;;;;5022553;28;20272;-60
2024/01/11 04:56:34;;;;;;;31.67;18.87;;;-4.40;66.80;;;;;;5022875;28;20246;-59
2024/01/11 04:59:01;;;;;;;29.40;18.77;;;-4.40;66.70;;;;;;5022505;28;20206;-60
2024/01/11 05:01:27;;;;;;;31.20;18.70;;;-4.40;67.10;;;;;;5023175;28;20690;-60
2024/01/11 05:03:54;;;;;;;30.90;19.63;;;-4.20;66.60;;;;;;5030104;28;20252;-60
2024/01/11 05:06:21;;;;;;;31.10;18.73;;;-4.30;67.30;;;;;;5029915;28;20226;-58
2024/01/11 05:08:48;;;;;;;28.97;19.33;;;-4.40;67.00;;;;;;5025818;28;20258;-58
2024/01/11 05:11:14;;;;;;;28.73;18.80;;;-4.30;67.30;;;;;;5023294;28;20274;-60
2024/01/11 05:13:41;;;;;;;27.90;18.07;;;-4.30;66.80;;;;;;5025213;28;20693;-59
2024/01/11 05:16:07;;;;;;;31.53;19.37;;;-4.30;67.60;;;;;;5034154;28;20227;-59
2024/01/11 05:18:34;;;;;;;34.13;19.60;;;-4.20;67.20;;;;;;5033976;28;20210;-59
2024/01/11 05:21:00;;;;;;;33.20;19.83;;;-4.30;67.10;;;;;;5026463;28;20198;-58
2024/01/11 05:23:27;;;;;;;30.00;19.60;;;-4.30;67.30;;;;;;5037432;28;20260;-60
2024/01/11 05:25:53;;;;;;;33.50;19.83;;;-4.30;67.80;;;;;;5023774;28;20223;-58
2024/01/11 05:28:20;;;;;;;35.83;20.13;;;-4.30;67.40;;;;;;5029757;28;20199;-59
2024/01/11 05:30:46;;;;;;;29.23;18.27;;;-4.40;67.40;;;;;;5024157;28;20693;-60
2024/01/11 05:33:13;;;;;;;33.10;19.60;;;-4.30;66.90;;;;;;5027181;28;20692;-60
2024/01/11 05:35:39;;;;;;;37.00;21.00;;;-4.50;67.10;;;;;;5031987;28;20226;-61
2024/01/11 05:38:06;;;;;;;35.60;19.43;;;-4.30;67.00;;;;;;5022819;28;20211;-60
2024/01/11 05:40:33;;;;;;;35.40;21.40;;;-4.30;66.90;;;;;;5025071;28;20207;-60
2024/01/11 05:42:59;;;;;;;34.43;21.87;;;-4.50;67.40;;;;;;5026020;28;20202;-60
2024/01/11 05:45:26;;;;;;;34.73;19.47;;;-4.50;67.00;;;;;;5023527;28;20227;-60
2024/01/11 05:47:53;;;;;;;35.23;20.40;;;-4.80;68.60;;;;;;5025677;28;20210;-60
2024/01/11 05:50:19;;;;;;;34.60;20.90;;;-4.60;68.70;;;;;;5028517;28;20624;-59
2024/01/11 05:52:46;;;;;;;41.63;23.93;;;-4.40;68.90;;;;;;5030150;28;20215;-60
2024/01/11 05:55:12;;;;;;;41.80;21.43;;;-4.40;67.50;;;;;;5023733;28;20283;-60
2024/01/11 05:57:39;;;;;;;35.83;22.03;;;-4.60;66.80;;;;;;5023471;28;20210;-60
2024/01/11 06:00:05;;;;;;;38.70;21.73;;;-4.50;67.70;;;;;;5028025;28;20207;-59
2024/01/11 06:02:32;;;;;;;52.37;26.43;;;-4.50;67.20;;;;;;5026195;28;20277;-59
2024/01/11 06:04:59;;;;;;;42.07;24.57;;;-4.60;67.90;;;;;;5026680;28;20210;-60
2024/01/11 06:07:25;;;;;;;41.60;22.77;;;-4.60;68.60;;;;;;5023864;28;20272;-60
2024/01/11 06:09:52;;;;;;;38.93;22.13;;;-4.50;68.10;;;;;;5021675;28;20725;-58
2024/01/11 06:12:19;;;;;;;41.70;24.37;;;-4.50;67.40;;;;;;5033255;28;20234;-58
2024/01/11 06:14:46;;;;;;;37.03;20.20;;;-4.40;68.30;;;;;;5018394;28;20206;-59
2024/01/11 06:17:12;;;;;;;38.53;20.47;;;-4.40;66.90;;;;;;5029256;28;20600;-57
2024/01/11 06:19:39;;;;;;;35.80;20.53;;;-4.50;67.20;;;;;;5030273;28;20206;-59
2024/01/11 06:22:05;;;;;;;29.23;18.73;;;-4.50;67.60;;;;;;5030840;28;20305;-58
2024/01/11 06:24:32;;;;;;;33.17;19.73;;;-4.60;67.00;;;;;;5022269;28;20259;-62
2024/01/11 06:26:58;;;;;;;31.57;20.97;;;-4.50;66.60;;;;;;5043703;28;20218;-55
2024/01/11 06:29:25;;;;;;;32.93;20.27;;;-4.50;67.30;;;;;;5032798;28;20198;-56
2024/01/11 06:31:51;;;;;;;38.30;21.63;;;-4.50;66.80;;;;;;5025229;28;20200;-56
2024/01/11 06:34:18;;;;;;;34.87;21.17;;;-4.50;66.60;;;;;;5028507;28;20203;-55
2024/01/11 06:36:45;;;;;;;36.77;20.37;;;-4.40;67.10;;;;;;5031889;28;20222;-56
2024/01/11 06:39:12;;;;;;;39.80;21.77;;;-4.40;66.80;;;;;;5036016;28;20234;-57
2024/01/11 06:41:39;;;;;;;40.47;22.20;;;-4.40;67.10;;;;;;5026678;28;20292;-57
2024/01/11 06:44:05;;;;;;;36.00;22.60;;;-4.40;66.60;;;;;;5031868;28;20661;-57
2024/01/11 06:46:32;;;;;;;35.97;20.23;;;-4.50;65.60;;;;;;5032843;28;20230;-55
2024/01/11 06:48:58;;;;;;;36.03;21.13;;;-4.50;65.00;;;;;;5031362;28;20677;-56
2024/01/11 06:51:25;;;;;;;37.97;21.63;;;-4.60;66.20;;;;;;5026938;28;20206;-55
2024/01/11 06:53:51;;;;;;;40.80;22.30;;;-4.70;67.50;;;;;;5032744;28;20670;-56
2024/01/11 06:56:18;;;;;;;37.80;21.73;;;-4.90;68.60;;;;;;5022535;28;20235;-55
2024/01/11 06:58:44;;;;;;;38.17;21.37;;;-4.70;68.80;;;;;;5030839;28;20210;-56
2024/01/11 07:01:11;;;;;;;33.77;20.53;;;-4.80;66.70;;;;;;5029133;28;20198;-55
2024/01/11 07:03:37;;;;;;;31.10;20.07;;;-4.60;66.70;;;;;;5030979;28;20253;-55
2024/01/11 07:06:04;;;;;;;33.80;18.40;;;-4.60;66.40;;;;;;5027399;28;20767;-54
2024/01/11 07:08:30;;;;;;;35.57;20.00;;;-4.60;65.00;;;;;;5027694;28;20206;-58
2024/01/11 07:10:57;;;;;;;31.20;20.30;;;-4.70;65.70;;;;;;5022736;28;20206;-56
2024/01/11 07:13:23;;;;;;;34.03;19.10;;;-4.80;66.50;;;;;;5031113;28;20207;-56
2024/01/11 07:15:51;;;;;;;28.73;18.07;;;-4.70;66.60;;;;;;5030047;28;20759;-56
2024/01/11 07:18:18;;;;;;;26.43;17.27;;;-4.90;65.70;;;;;;5030214;28;20690;-57
2024/01/11 07:20:44;;;;;;;30.50;17.63;;;-4.70;66.50;;;;;;5023290;28;20253;-57
2024/01/11 07:23:11;;;;;;;30.93;17.03;;;-4.90;67.30;;;;;;5029009;28;20272;-55
2024/01/11 07:25:37;;;;;;;25.63;16.00;;;-4.90;66.90;;;;;;5029197;28;20583;-57
2024/01/11 07:28:04;;;;;;;29.57;17.87;;;-4.90;66.80;;;;;;5020773;28;20253;-57
2024/01/11 07:30:30;;;;;;;23.17;15.80;;;-4.80;66.50;;;;;;5032520;28;20491;-57
2024/01/11 07:32:57;;;;;;;27.23;16.37;;;-4.70;66.20;;;;;;5035726;28;20213;-57
2024/01/11 07:35:23;;;;;;;27.77;16.93;;;-4.60;66.00;;;;;;5040328;28;20225;-57
2024/01/11 07:37:50;;;;;;;26.43;16.20;;;-4.50;65.70;;;;;;5026950;28;20268;-58
2024/01/11 07:40:17;;;;;;;24.67;16.67;;;-4.50;66.00;;;;;;5039452;28;20212;-57
2024/01/11 07:42:43;;;;;;;26.90;17.60;;;-4.50;65.10;;;;;;5025788;28;20272;-54
2024/01/11 07:45:10;;;;;;;25.93;17.63;;;-4.50;65.50;;;;;;5033216;28;20226;-57
2024/01/11 07:47:37;;;;;;;26.87;15.23;;;-4.50;65.50;;;;;;5036580;28;20578;-56
2024/01/11 07:50:03;;;;;;;28.63;17.87;;;-4.50;66.30;;;;;;5030696;28;20257;-56
2024/01/11 07:52:30;;;;;;;27.60;17.87;;;-4.50;65.90;;;;;;5021973;28;20206;-57
2024/01/11 07:54:57;;;;;;;30.00;17.10;;;-4.40;65.80;;;;;;5023328;28;20293;-57
2024/01/11 07:57:24;;;;;;;30.87;18.63;;;-4.50;66.30;;;;;;5019916;28;20218;-57
2024/01/11 07:59:50;;;;;;;27.73;16.47;;;-4.40;66.10;;;;;;5027733;28;20245;-56
2024/01/11 08:02:17;;;;;;;26.43;17.57;;;-4.50;65.70;;;;;;5028689;28;20202;-58
2024/01/11 08:04:43;;;;;;;33.33;20.00;;;-4.50;66.30;;;;;;5021263;28;20688;-56
2024/01/11 08:07:10;;;;;;;28.43;17.83;;;-4.40;66.60;;;;;;5029698;28;20261;-55
2024/01/11 08:09:38;;;;;;;29.07;17.80;;;-4.30;66.30;;;;;;5030269;28;20206;-57
2024/01/11 08:12:05;;;;;;;25.83;16.73;;;-4.30;66.20;;;;;;5029628;28;20235;-58
2024/01/11 08:14:31;;;;;;;26.90;16.70;;;-4.10;66.40;;;;;;5030892;28;20731;-55
2024/01/11 08:16:58;;;;;;;29.00;17.70;;;-4.00;65.60;;;;;;5023558;28;20281;-56
2024/01/11 08:19:24;;;;;;;27.53;16.07;;;-4.00;64.90;;;;;;5029673;28;20272;-59
2024/01/11 08:21:51;;;;;;;28.17;17.50;;;-4.00;64.60;;;;;;5014874;28;20202;-54
2024/01/11 08:24:18;;;;;;;29.73;18.17;;;-3.90;64.70;;;;;;5028074;28;20203;-57
2024/01/11 08:26:44;;;;;;;33.97;18.23;;;-3.80;65.00;;;;;;5021412;28;20283;-58
2024/01/11 08:29:11;;;;;;;29.40;17.77;;;-3.80;64.70;;;;;;5024106;28;20703;-56
2024/01/11 08:31:37;;;;;;;31.43;19.07;;;-3.70;64.80;;;;;;5018638;28;20253;-57
2024/01/11 08:34:04;;;;;;;31.40;18.90;;;-3.80;64.70;;;;;;5025471;28;20202;-56
2024/01/11 08:36:31;;;;;;;34.07;19.07;;;-3.70;65.50;;;;;;5028750;28;20227;-57
2024/01/11 08:38:57;;;;;;;29.37;17.97;;;-3.70;64.90;;;;;;5029044;28;20617;-58
2024/01/11 08:41:24;;;;;;;30.83;19.17;;;-4.00;66.00;;;;;;5029200;28;20727;-58
2024/01/11 08:43:51;;;;;;;31.17;19.00;;;-4.00;66.70;;;;;;5029560;28;20211;-54
2024/01/11 08:46:18;;;;;;;30.83;18.33;;;-3.80;66.90;;;;;;5025954;28;20218;-56
2024/01/11 08:48:44;;;;;;;30.87;18.53;;;-3.80;65.70;;;;;;5032402;28;20622;-58
2024/01/11 08:51:11;;;;;;;28.37;18.53;;;-3.80;65.50;;;;;;5033237;28;20210;-58
2024/01/11 08:53:37;;;;;;;37.10;20.00;;;-3.90;65.80;;;;;;5024603;28;20218;-58
2024/01/11 08:56:04;;;;;;;32.50;18.93;;;-4.00;66.20;;;;;;5034608;28;20705;-57
2024/01/11 08:58:30;;;;;;;32.43;20.93;;;-4.10;66.40;;;;;;5028516;28;20214;-57
2024/01/11 09:00:57;;;;;;;34.67;20.93;;;-4.10;66.20;;;;;;5025538;28;20225;-56
2024/01/11 09:03:24;;;;;;;34.17;21.47;;;-4.10;65.70;;;;;;5029348;28;20209;-53
2024/01/11 09:05:50;;;;;;;38.80;23.17;;;-4.20;66.50;;;;;;5032919;28;20301;-57
2024/01/11 09:08:17;;;;;;;42.17;24.57;;;-4.00;66.20;;;;;;5031521;28;20264;-54
2024/01/11 09:10:43;;;;;;;48.87;27.73;;;-3.80;65.40;;;;;;5035842;28;20209;-57
2024/01/11 09:13:10;;;;;;;48.43;26.97;;;-3.90;64.40;;;;;;5031082;28;20202;-56
2024/01/11 09:15:37;;;;;;;42.77;26.70;;;-3.80;64.70;;;;;;5032599;28;20218;-57
2024/01/11 09:18:03;;;;;;;51.10;26.63;;;-4.00;64.60;;;;;;5033184;28;20705;-56
2024/01/11 09:20:30;;;;;;;50.00;27.90;;;-4.40;64.20;;;;;;5028604;28;20685;-55
2024/01/11 09:22:56;;;;;;;47.20;26.03;;;-4.10;65.00;;;;;;5026161;28;20211;-58
2024/01/11 09:25:23;;;;;;;52.30;29.47;;;-4.10;64.50;;;;;;5029782;28;20276;-56
2024/01/11 09:27:50;;;;;;;48.63;29.00;;;-4.20;63.90;;;;;;5036493;28;20209;-56
2024/01/11 09:30:16;;;;;;;51.87;27.30;;;-4.20;64.40;;;;;;5029363;28;20575;-56
2024/01/11 09:32:43;;;;;;;52.50;28.13;;;-4.10;63.50;;;;;;5034228;28;20685;-54
2024/01/11 09:35:10;;;;;;;52.47;27.93;;;-4.10;63.50;;;;;;5026610;28;20241;-54
2024/01/11 09:37:37;;;;;;;52.67;30.07;;;-4.30;62.60;;;;;;5031221;28;20261;-57
2024/01/11 09:40:08;;;;;;;49.93;28.83;;;-4.30;62.50;;;;;;5027642;28;20253;-58
2024/01/11 09:42:34;;;;;;;53.00;27.67;;;-4.30;63.30;;;;;;5031988;28;20588;-57
2024/01/11 09:45:01;;;;;;;52.43;28.87;;;-4.20;63.70;;;;;;5029193;28;20310;-56
2024/01/11 09:47:27;;;;;;;48.03;29.03;;;-4.10;62.50;;;;;;5029002;28;20616;-57
2024/01/11 09:49:54;;;;;;;52.13;28.27;;;-4.20;62.60;;;;;;5032434;28;20210;-57
2024/01/11 09:52:20;;;;;;;48.87;29.07;;;-4.30;62.80;;;;;;5030561;28;20202;-58
2024/01/11 09:54:47;;;;;;;48.80;28.40;;;-4.20;62.50;;;;;;5026061;28;20622;-56
2024/01/11 09:57:13;;;;;;;51.47;29.53;;;-4.30;62.70;;;;;;5031656;28;20229;-55
2024/01/11 09:59:40;;;;;;;49.80;28.53;;;-4.10;63.20;;;;;;5030841;28;20202;-52
2024/01/11 10:02:08;;;;;;;57.23;29.10;;;-4.20;61.80;;;;;;5026343;28;20207;-55
2024/01/11 10:04:34;;;;;;;53.03;29.03;;;-4.10;62.80;;;;;;5032293;28;20345;-56
2024/01/11 10:07:02;;;;;;;53.13;28.03;;;-3.90;63.10;;;;;;5028320;28;20223;-57
2024/01/11 10:09:28;;;;;;;49.63;27.33;;;-3.90;61.60;;;;;;5017337;28;20222;-57
2024/01/11 10:11:55;;;;;;;51.83;28.80;;;-3.90;62.00;;;;;;5030941;28;20214;-59
2024/01/11 10:14:22;;;;;;;52.10;28.33;;;-3.90;61.70;;;;;;5031923;28;20237;-58
2024/01/11 10:16:48;;;;;;;52.97;28.00;;;-4.00;61.70;;;;;;5029985;28;20717;-59
2024/01/11 10:19:16;;;;;;;50.93;30.53;;;-4.00;62.00;;;;;;5030136;28;20206;-58
2024/01/11 10:21:43;;;;;;;52.40;28.80;;;-3.90;62.40;;;;;;5023007;28;20206;-58
2024/01/11 10:24:09;;;;;;;53.67;28.07;;;-3.80;61.80;;;;;;5032940;28;20681;-58
2024/01/11 10:26:36;;;;;;;51.50;27.47;;;-3.90;62.20;;;;;;5029455;28;20290;-61
2024/01/11 10:31:32;;;;;;;54.33;27.30;;;-3.70;62.60;;;;;;5043885;28;20228;-58
2024/01/11 10:34:01;;;;;;;53.47;28.80;;;-3.60;61.90;;;;;;5037348;28;20569;-57
2024/01/11 10:36:28;;;;;;;49.23;28.77;;;-3.80;62.60;;;;;;5037845;28;20222;-59
2024/01/11 10:38:56;;;;;;;48.60;27.43;;;-3.70;63.70;;;;;;5050404;28;20210;-59
2024/01/11 10:41:22;;;;;;;54.27;28.60;;;-3.60;62.90;;;;;;5044156;28;20244;-59
2024/01/11 10:43:49;;;;;;;52.57;28.47;;;-3.70;63.10;;;;;;5050578;28;20206;-58
2024/01/11 10:46:16;;;;;;;53.57;29.13;;;-3.70;62.80;;;;;;5047887;28;20225;-59
2024/01/11 10:48:43;;;;;;;56.13;29.27;;;-3.60;62.80;;;;;;5041090;28;20229;-59
2024/01/11 10:51:12;;;;;;;50.70;28.47;;;-3.50;62.70;;;;;;5047562;28;20664;-58
2024/01/11 10:53:38;;;;;;;52.27;28.23;;;-3.30;62.30;;;;;;5044461;28;20213;-56
2024/01/11 10:56:07;;;;;;;56.53;30.17;;;-3.30;63.10;;;;;;5050155;28;20229;-59
2024/01/11 10:58:35;;;;;;;50.47;27.90;;;-3.60;61.70;;;;;;5046547;28;20226;-62
2024/01/11 11:01:01;;;;;;;61.00;29.43;;;-3.60;62.80;;;;;;5046187;28;20210;-59
2024/01/11 11:03:28;;;;;;;57.40;28.63;;;-3.50;63.30;;;;;;5050901;28;20237;-59
2024/01/11 11:05:55;;;;;;;55.20;28.73;;;-3.70;63.60;;;;;;5044090;28;20321;-58
2024/01/11 11:08:22;;;;;;;54.00;29.00;;;-3.50;65.00;;;;;;5050910;28;20194;-58
2024/01/11 11:10:48;;;;;;;58.23;29.93;;;-3.50;63.90;;;;;;5050712;28;20208;-59
2024/01/11 11:13:15;;;;;;;54.37;29.93;;;-3.50;63.60;;;;;;5049942;28;20698;-59
2024/01/11 11:15:41;;;;;;;54.93;29.43;;;-3.40;64.10;;;;;;5048911;28;20758;-58
2024/01/11 11:18:08;;;;;;;51.33;27.70;;;-3.30;63.70;;;;;;5047549;28;20615;-58
2024/01/11 11:20:34;;;;;;;59.83;30.33;;;-3.40;63.60;;;;;;5050652;28;20224;-57
2024/01/11 11:23:01;;;;;;;51.93;28.17;;;-3.30;63.70;;;;;;5051125;28;20210;-57
2024/01/11 11:25:28;;;;;;;55.33;29.13;;;-3.30;64.00;;;;;;5041110;28;20234;-59
2024/01/11 11:27:55;;;;;;;51.07;28.30;;;-3.30;64.00;;;;;;5047015;28;20214;-57
2024/01/11 11:30:21;;;;;;;52.87;27.93;;;-3.30;64.40;;;;;;5049473;28;20214;-58
2024/01/11 11:32:48;;;;;;;55.10;28.17;;;-3.10;63.60;;;;;;5047010;28;20910;-59
2024/01/11 11:35:14;;;;;;;52.07;29.10;;;-3.00;64.50;;;;;;5045154;28;20719;-59
2024/01/11 11:37:42;;;;;;;48.87;27.77;;;-3.00;64.40;;;;;;5047129;28;20222;-58
2024/01/11 11:40:10;;;;;;;50.63;27.97;;;-2.90;64.20;;;;;;5045540;28;20265;-59
2024/01/11 11:42:37;;;;;;;47.57;27.57;;;-3.00;63.00;;;;;;5047910;28;20205;-58
2024/01/11 11:45:03;;;;;;;51.00;28.17;;;-3.20;64.50;;;;;;5042201;28;20233;-58
2024/01/11 11:47:30;;;;;;;52.97;27.63;;;-3.20;65.30;;;;;;5044794;28;20198;-57
2024/01/11 11:49:56;;;;;;;54.23;29.90;;;-3.20;66.00;;;;;;5043557;28;20282;-58
2024/01/11 11:52:23;;;;;;;56.13;30.07;;;-3.20;65.20;;;;;;5041520;28;20242;-59
2024/01/11 11:54:49;;;;;;;48.73;27.90;;;-3.10;65.10;;;;;;5051015;28;20206;-59
2024/01/11 11:57:16;;;;;;;55.50;28.30;;;-3.00;64.40;;;;;;5038032;28;20229;-59
2024/01/11 11:59:42;;;;;;;50.50;28.13;;;-2.90;64.20;;;;;;5047054;28;20206;-58
2024/01/11 12:02:09;;;;;;;53.93;28.47;;;-2.90;63.10;;;;;;5046384;28;20260;-59
2024/01/11 12:04:36;;;;;;;53.97;29.77;;;-3.10;64.80;;;;;;5043783;28;20233;-59
2024/01/11 12:07:02;;;;;;;50.47;28.97;;;-3.00;64.90;;;;;;5039253;28;20217;-56
2024/01/11 12:09:29;;;;;;;55.60;28.37;;;-3.00;65.40;;;;;;5048673;28;20259;-56
2024/01/11 12:11:55;;;;;;;58.13;29.80;;;-2.90;64.80;;;;;;5043389;28;20283;-68
2024/01/11 12:14:22;;;;;;;59.73;28.83;;;-2.90;64.50;;;;;;5046969;28;20675;-57
2024/01/11 12:16:48;;;;;;;56.67;29.47;;;-2.80;64.70;;;;;;5043414;28;20221;-56
2024/01/11 12:19:15;;;;;;;53.27;30.07;;;-2.70;63.80;;;;;;5049160;28;20739;-58
2024/01/11 12:21:41;;;;;;;52.90;28.90;;;-2.70;63.80;;;;;;5054060;28;20209;-59
2024/01/11 12:24:08;;;;;;;50.40;29.40;;;-2.90;64.80;;;;;;5046809;28;20201;-58
2024/01/11 12:26:34;;;;;;;53.97;28.57;;;-2.70;64.70;;;;;;5046860;28;20218;-56
2024/01/11 12:29:02;;;;;;;49.83;28.33;;;-2.80;65.40;;;;;;5053599;28;20562;-57